sensor_id;sensor_type;location;lat;lon;timestamp;noise_LAeq;noise_LA_min;noise_LA_max;noise_LA01;noise_LA95
48967;Laerm;46511;53.148;8.204;2023-03-25T00:01:18;45.93;41.14;66.83;;
48967;Laerm;46511;53.148;8.204;2023-03-25T00:03:49;45.50;40.62;63.15;;
48967;Laerm;46511;53.148;8.204;2023-03-25T00:06:23;52.34;40.13;73.21;;
48967;Laerm;46511;53.148;8.204;2023-03-25T00:08:54;54.10;41.14;73.44;;
48967;Laerm;46511;53.148;8.204;2023-03-25T00:11:25;51.02;40.33;74.59;;
48967;Laerm;46511;53.148;8.204;2023-03-25T00:13:58;54.82;39.34;77.86;;
48967;Laerm;46511;53.148;8.204;2023-03-25T00:16:30;48.18;40.53;67.08;;
48967;Laerm;46511;53.148;8.204;2023-03-25T00:19:02;50.46;39.46;71.24;;
48967;Laerm;46511;53.148;8.204;2023-03-25T00:21:33;51.26;39.99;70.38;;
48967;Laerm;46511;53.148;8.204;2023-03-25T00:24:05;48.75;39.46;70.85;;
48967;Laerm;46511;53.148;8.204;2023-03-25T00:26:37;52.18;39.46;74.54;;
48967;Laerm;46511;53.148;8.204;2023-03-25T00:29:13;57.57;39.70;76.14;;
48967;Laerm;46511;53.148;8.204;2023-03-25T00:31:44;44.36;39.21;64.73;;
48967;Laerm;46511;53.148;8.204;2023-03-25T00:34:15;50.33;40.53;70.09;;
48967;Laerm;46511;53.148;8.204;2023-03-25T00:36:46;53.31;39.92;80.65;;
48967;Laerm;46511;53.148;8.204;2023-03-25T00:39:18;51.27;40.89;73.26;;
48967;Laerm;46511;53.148;8.204;2023-03-25T00:41:51;59.09;41.89;85.24;;
48967;Laerm;46511;53.148;8.204;2023-03-25T00:44:24;51.05;41.22;69.60;;
48967;Laerm;46511;53.148;8.204;2023-03-25T00:46:55;49.42;39.70;67.42;;
48967;Laerm;46511;53.148;8.204;2023-03-25T00:49:27;46.63;40.71;67.46;;
48967;Laerm;46511;53.148;8.204;2023-03-25T00:51:58;53.80;39.81;72.06;;
48967;Laerm;46511;53.148;8.204;2023-03-25T00:54:30;45.65;40.03;62.06;;
48967;Laerm;46511;53.148;8.204;2023-03-25T00:57:04;45.23;40.43;62.68;;
48967;Laerm;46511;53.148;8.204;2023-03-25T00:59:35;51.56;39.70;78.84;;
48967;Laerm;46511;53.148;8.204;2023-03-25T01:02:06;54.80;37.70;76.07;;
48967;Laerm;46511;53.148;8.204;2023-03-25T01:04:39;47.21;40.03;68.29;;
48967;Laerm;46511;53.148;8.204;2023-03-25T01:07:10;58.06;39.46;78.26;;
48967;Laerm;46511;53.148;8.204;2023-03-25T01:09:42;49.52;38.67;70.78;;
48967;Laerm;46511;53.148;8.204;2023-03-25T01:12:16;56.51;38.95;78.78;;
48967;Laerm;46511;53.148;8.204;2023-03-25T01:14:49;51.84;37.70;72.98;;
48967;Laerm;46511;53.148;8.204;2023-03-25T01:17:20;53.28;39.81;75.31;;
48967;Laerm;46511;53.148;8.204;2023-03-25T01:19:51;55.10;38.81;73.81;;
48967;Laerm;46511;53.148;8.204;2023-03-25T01:22:23;49.70;39.21;70.60;;
48967;Laerm;46511;53.148;8.204;2023-03-25T01:24:54;57.35;39.34;79.99;;
48967;Laerm;46511;53.148;8.204;2023-03-25T01:27:25;53.69;38.74;75.19;;
48967;Laerm;46511;53.148;8.204;2023-03-25T01:29:57;50.13;38.21;72.97;;
48967;Laerm;46511;53.148;8.204;2023-03-25T01:32:28;52.48;40.54;73.82;;
48967;Laerm;46511;53.148;8.204;2023-03-25T01:34:59;51.48;39.21;72.19;;
48967;Laerm;46511;53.148;8.204;2023-03-25T01:37:30;53.75;39.92;79.89;;
48967;Laerm;46511;53.148;8.204;2023-03-25T01:40:05;54.95;40.13;72.98;;
48967;Laerm;46511;53.148;8.204;2023-03-25T01:42:39;56.15;39.46;76.58;;
48967;Laerm;46511;53.148;8.204;2023-03-25T01:45:24;55.99;40.33;78.30;;
48967;Laerm;46511;53.148;8.204;2023-03-25T01:48:02;60.70;39.34;74.99;;
48967;Laerm;46511;53.148;8.204;2023-03-25T01:50:43;57.98;41.55;74.10;;
48967;Laerm;46511;53.148;8.204;2023-03-25T01:53:15;54.75;40.18;81.54;;
48967;Laerm;46511;53.148;8.204;2023-03-25T01:55:47;52.97;40.53;74.57;;
48967;Laerm;46511;53.148;8.204;2023-03-25T01:58:20;58.99;38.37;82.03;;
48967;Laerm;46511;53.148;8.204;2023-03-25T02:00:53;48.52;40.23;70.69;;
48967;Laerm;46511;53.148;8.204;2023-03-25T02:03:26;51.84;40.53;74.70;;
48967;Laerm;46511;53.148;8.204;2023-03-25T02:06:01;54.18;39.08;78.48;;
48967;Laerm;46511;53.148;8.204;2023-03-25T02:08:38;57.31;40.23;77.62;;
48967;Laerm;46511;53.148;8.204;2023-03-25T02:11:09;56.38;39.21;78.60;;
48967;Laerm;46511;53.148;8.204;2023-03-25T02:13:41;52.30;40.03;72.41;;
48967;Laerm;46511;53.148;8.204;2023-03-25T02:16:41;53.80;38.95;79.06;;
48967;Laerm;46511;53.148;8.204;2023-03-25T02:31:18;51.96;40.43;76.09;;
48967;Laerm;46511;53.148;8.204;2023-03-25T02:37:33;56.59;41.06;85.96;;
48967;Laerm;46511;53.148;8.204;2023-03-25T02:40:34;50.10;40.53;70.43;;
48967;Laerm;46511;53.148;8.204;2023-03-25T02:43:17;54.39;40.13;77.85;;
48967;Laerm;46511;53.148;8.204;2023-03-25T02:45:53;49.55;39.08;70.22;;
48967;Laerm;46511;53.148;8.204;2023-03-25T02:48:28;55.63;38.02;81.60;;
48967;Laerm;46511;53.148;8.204;2023-03-25T02:51:08;45.87;40.13;66.98;;
48967;Laerm;46511;53.148;8.204;2023-03-25T02:53:45;57.41;40.13;78.28;;
48967;Laerm;46511;53.148;8.204;2023-03-25T02:56:21;54.60;38.67;76.08;;
48967;Laerm;46511;53.148;8.204;2023-03-25T02:58:54;49.87;38.67;69.64;;
48967;Laerm;46511;53.148;8.204;2023-03-25T03:01:26;54.34;40.33;76.02;;
48967;Laerm;46511;53.148;8.204;2023-03-25T03:03:58;56.68;40.89;77.20;;
48967;Laerm;46511;53.148;8.204;2023-03-25T03:06:30;53.76;38.37;73.48;;
48967;Laerm;46511;53.148;8.204;2023-03-25T03:14:53;53.23;39.57;77.33;;
48967;Laerm;46511;53.148;8.204;2023-03-25T03:23:19;49.60;39.81;75.02;;
48967;Laerm;46511;53.148;8.204;2023-03-25T03:26:10;54.45;39.99;73.55;;
48967;Laerm;46511;53.148;8.204;2023-03-25T03:28:55;54.82;40.96;78.31;;
48967;Laerm;46511;53.148;8.204;2023-03-25T03:31:34;55.20;41.82;73.70;;
48967;Laerm;46511;53.148;8.204;2023-03-25T03:34:12;58.18;40.80;76.86;;
48967;Laerm;46511;53.148;8.204;2023-03-25T03:36:48;58.70;41.14;79.98;;
48967;Laerm;46511;53.148;8.204;2023-03-25T03:39:24;48.51;40.89;69.65;;
48967;Laerm;46511;53.148;8.204;2023-03-25T03:42:04;54.22;38.52;77.21;;
48967;Laerm;46511;53.148;8.204;2023-03-25T03:44:38;61.88;41.38;82.44;;
48967;Laerm;46511;53.148;8.204;2023-03-25T03:47:14;59.47;41.46;85.50;;
48967;Laerm;46511;53.148;8.204;2023-03-25T03:49:59;53.99;40.62;82.97;;
48967;Laerm;46511;53.148;8.204;2023-03-25T03:52:37;60.85;41.82;83.80;;
48967;Laerm;46511;53.148;8.204;2023-03-25T03:55:13;54.98;42.53;75.28;;
48967;Laerm;46511;53.148;8.204;2023-03-25T03:57:51;53.33;44.07;69.24;;
48967;Laerm;46511;53.148;8.204;2023-03-25T04:00:35;51.87;42.03;75.20;;
48967;Laerm;46511;53.148;8.204;2023-03-25T04:03:11;58.72;42.64;79.66;;
48967;Laerm;46511;53.148;8.204;2023-03-25T04:05:52;53.93;42.98;70.10;;
48967;Laerm;46511;53.148;8.204;2023-03-25T04:08:29;52.41;42.71;72.54;;
48967;Laerm;46511;53.148;8.204;2023-03-25T04:11:04;55.60;42.41;76.08;;
48967;Laerm;46511;53.148;8.204;2023-03-25T04:13:41;54.43;42.82;71.90;;
48967;Laerm;46511;53.148;8.204;2023-03-25T04:16:14;57.62;41.61;75.82;;
48967;Laerm;46511;53.148;8.204;2023-03-25T04:18:46;55.29;41.89;70.95;;
48967;Laerm;46511;53.148;8.204;2023-03-25T04:21:19;58.96;42.35;78.44;;
48967;Laerm;46511;53.148;8.204;2023-03-25T04:23:50;52.94;41.61;68.17;;
48967;Laerm;46511;53.148;8.204;2023-03-25T04:26:22;57.96;43.60;69.13;;
48967;Laerm;46511;53.148;8.204;2023-03-25T04:28:53;57.62;43.29;72.25;;
48967;Laerm;46511;53.148;8.204;2023-03-25T04:31:24;56.11;43.99;70.07;;
48967;Laerm;46511;53.148;8.204;2023-03-25T04:33:57;55.80;44.79;71.51;;
48967;Laerm;46511;53.148;8.204;2023-03-25T04:36:29;52.34;44.39;69.15;;
48967;Laerm;46511;53.148;8.204;2023-03-25T04:39:03;57.37;44.62;71.34;;
48967;Laerm;46511;53.148;8.204;2023-03-25T04:41:35;53.41;44.11;68.59;;
48967;Laerm;46511;53.148;8.204;2023-03-25T04:44:06;54.71;44.65;68.01;;
48967;Laerm;46511;53.148;8.204;2023-03-25T04:46:40;54.82;43.63;75.87;;
48967;Laerm;46511;53.148;8.204;2023-03-25T04:49:19;55.65;44.19;69.51;;
48967;Laerm;46511;53.148;8.204;2023-03-25T04:51:52;53.12;43.24;66.83;;
48967;Laerm;46511;53.148;8.204;2023-03-25T04:54:24;55.21;42.93;67.03;;
48967;Laerm;46511;53.148;8.204;2023-03-25T04:56:55;56.87;42.71;77.42;;
48967;Laerm;46511;53.148;8.204;2023-03-25T04:59:28;53.65;42.82;71.65;;
48967;Laerm;46511;53.148;8.204;2023-03-25T05:02:01;53.15;42.35;73.68;;
48967;Laerm;46511;53.148;8.204;2023-03-25T05:04:33;53.04;41.53;73.58;;
48967;Laerm;46511;53.148;8.204;2023-03-25T05:07:04;56.07;41.96;75.34;;
48967;Laerm;46511;53.148;8.204;2023-03-25T05:09:35;51.34;42.82;67.50;;
48967;Laerm;46511;53.148;8.204;2023-03-25T05:12:07;52.87;42.93;71.52;;
48967;Laerm;46511;53.148;8.204;2023-03-25T05:14:41;52.87;42.53;66.78;;
48967;Laerm;46511;53.148;8.204;2023-03-25T05:17:12;52.76;43.81;66.25;;
48967;Laerm;46511;53.148;8.204;2023-03-25T05:19:43;53.86;42.29;71.72;;
48967;Laerm;46511;53.148;8.204;2023-03-25T05:22:15;55.13;42.98;72.74;;
48967;Laerm;46511;53.148;8.204;2023-03-25T05:24:46;57.63;43.77;74.95;;
48967;Laerm;46511;53.148;8.204;2023-03-25T05:27:18;56.09;43.72;77.21;;
48967;Laerm;46511;53.148;8.204;2023-03-25T05:29:52;60.01;43.63;72.68;;
48967;Laerm;46511;53.148;8.204;2023-03-25T05:32:24;59.41;43.44;71.80;;
48967;Laerm;46511;53.148;8.204;2023-03-25T05:34:56;54.73;42.16;73.86;;
48967;Laerm;46511;53.148;8.204;2023-03-25T05:37:27;53.36;43.14;73.52;;
48967;Laerm;46511;53.148;8.204;2023-03-25T05:39:59;58.45;43.24;72.90;;
48967;Laerm;46511;53.148;8.204;2023-03-25T05:42:30;59.69;42.98;77.03;;
48967;Laerm;46511;53.148;8.204;2023-03-25T05:45:03;54.09;42.76;75.27;;
48967;Laerm;46511;53.148;8.204;2023-03-25T05:47:34;56.11;42.93;68.54;;
48967;Laerm;46511;53.148;8.204;2023-03-25T05:50:06;52.59;42.16;71.77;;
48967;Laerm;46511;53.148;8.204;2023-03-25T05:52:38;49.38;42.53;70.10;;
48967;Laerm;46511;53.148;8.204;2023-03-25T05:55:18;56.02;43.14;80.33;;
48967;Laerm;46511;53.148;8.204;2023-03-25T05:57:49;51.46;43.04;71.75;;
48967;Laerm;46511;53.148;8.204;2023-03-25T06:00:21;58.43;42.93;77.87;;
48967;Laerm;46511;53.148;8.204;2023-03-25T06:02:52;59.37;43.34;82.69;;
48967;Laerm;46511;53.148;8.204;2023-03-25T06:05:24;61.13;44.07;84.53;;
48967;Laerm;46511;53.148;8.204;2023-03-25T06:07:56;56.01;43.49;76.02;;
48967;Laerm;46511;53.148;8.204;2023-03-25T06:10:27;58.36;42.47;75.77;;
48967;Laerm;46511;53.148;8.204;2023-03-25T06:12:58;56.64;42.53;77.47;;
48967;Laerm;46511;53.148;8.204;2023-03-25T06:15:30;58.21;44.11;74.96;;
48967;Laerm;46511;53.148;8.204;2023-03-25T06:18:08;61.14;43.68;82.38;;
48967;Laerm;46511;53.148;8.204;2023-03-25T06:20:40;58.33;43.04;75.52;;
48967;Laerm;46511;53.148;8.204;2023-03-25T06:23:11;57.30;45.17;71.57;;
48967;Laerm;46511;53.148;8.204;2023-03-25T06:25:43;51.52;43.14;67.72;;
48967;Laerm;46511;53.148;8.204;2023-03-25T06:28:14;53.08;43.81;66.12;;
48967;Laerm;46511;53.148;8.204;2023-03-25T06:30:48;61.67;42.82;84.25;;
48967;Laerm;46511;53.148;8.204;2023-03-25T06:33:19;58.30;43.63;76.75;;
48967;Laerm;46511;53.148;8.204;2023-03-25T06:35:51;57.44;44.47;78.72;;
48967;Laerm;46511;53.148;8.204;2023-03-25T06:38:23;58.99;44.65;75.53;;
48967;Laerm;46511;53.148;8.204;2023-03-25T06:40:56;58.43;43.63;73.12;;
48967;Laerm;46511;53.148;8.204;2023-03-25T06:43:27;55.96;43.81;72.01;;
48967;Laerm;46511;53.148;8.204;2023-03-25T06:45:58;52.47;41.96;66.73;;
48967;Laerm;46511;53.148;8.204;2023-03-25T06:48:30;54.87;43.63;71.08;;
48967;Laerm;46511;53.148;8.204;2023-03-25T06:51:01;56.30;43.44;67.15;;
48967;Laerm;46511;53.148;8.204;2023-03-25T06:53:32;61.48;44.03;75.17;;
48967;Laerm;46511;53.148;8.204;2023-03-25T06:56:04;57.68;43.39;75.04;;
48967;Laerm;46511;53.148;8.204;2023-03-25T06:58:36;54.78;42.47;74.82;;
48967;Laerm;46511;53.148;8.204;2023-03-25T07:01:07;58.97;43.68;77.08;;
48967;Laerm;46511;53.148;8.204;2023-03-25T07:03:38;58.08;43.34;77.34;;
48967;Laerm;46511;53.148;8.204;2023-03-25T07:06:19;57.84;44.80;82.67;;
48967;Laerm;46511;53.148;8.204;2023-03-25T07:08:51;55.63;43.94;72.93;;
48967;Laerm;46511;53.148;8.204;2023-03-25T07:11:25;54.01;43.63;67.39;;
48967;Laerm;46511;53.148;8.204;2023-03-25T07:13:58;60.23;44.19;79.12;;
48967;Laerm;46511;53.148;8.204;2023-03-25T07:16:29;57.93;44.58;77.24;;
48967;Laerm;46511;53.148;8.204;2023-03-25T07:19:01;50.84;44.80;67.96;;
48967;Laerm;46511;53.148;8.204;2023-03-25T07:21:32;62.27;44.47;84.82;;
48967;Laerm;46511;53.148;8.204;2023-03-25T07:24:03;71.91;48.28;96.64;;
48967;Laerm;46511;53.148;8.204;2023-03-25T07:26:35;58.62;47.48;79.01;;
48967;Laerm;46511;53.148;8.204;2023-03-25T07:29:06;67.14;47.95;89.04;;
48967;Laerm;46511;53.148;8.204;2023-03-25T07:31:37;61.05;48.25;83.11;;
48967;Laerm;46511;53.148;8.204;2023-03-25T07:34:10;63.94;48.94;88.81;;
48967;Laerm;46511;53.148;8.204;2023-03-25T07:36:41;59.78;49.55;81.61;;
48967;Laerm;46511;53.148;8.204;2023-03-25T07:39:12;57.94;47.38;75.88;;
48967;Laerm;46511;53.148;8.204;2023-03-25T07:41:44;60.58;46.34;79.09;;
48967;Laerm;46511;53.148;8.204;2023-03-25T07:44:17;59.23;48.05;78.15;;
48967;Laerm;46511;53.148;8.204;2023-03-25T07:46:50;61.10;45.99;79.24;;
48967;Laerm;46511;53.148;8.204;2023-03-25T07:49:22;55.20;45.48;67.81;;
48967;Laerm;46511;53.148;8.204;2023-03-25T07:51:53;58.28;44.90;76.91;;
48967;Laerm;46511;53.148;8.204;2023-03-25T07:54:24;52.84;44.94;67.32;;
48967;Laerm;46511;53.148;8.204;2023-03-25T07:56:56;64.62;44.97;76.35;;
48967;Laerm;46511;53.148;8.204;2023-03-25T07:59:27;51.30;44.35;65.73;;
48967;Laerm;46511;53.148;8.204;2023-03-25T08:01:58;55.24;44.80;66.83;;
48967;Laerm;46511;53.148;8.204;2023-03-25T08:04:30;56.39;45.48;68.04;;
48967;Laerm;46511;53.148;8.204;2023-03-25T08:07:01;57.85;45.57;70.54;;
48967;Laerm;46511;53.148;8.204;2023-03-25T08:09:32;56.19;45.36;69.11;;
48967;Laerm;46511;53.148;8.204;2023-03-25T08:12:04;58.17;45.75;75.44;;
48967;Laerm;46511;53.148;8.204;2023-03-25T08:14:35;55.82;46.01;73.67;;
48967;Laerm;46511;53.148;8.204;2023-03-25T08:17:07;56.65;45.45;67.41;;
48967;Laerm;46511;53.148;8.204;2023-03-25T08:19:38;57.37;45.94;67.30;;
48967;Laerm;46511;53.148;8.204;2023-03-25T08:22:09;58.16;45.83;71.92;;
48967;Laerm;46511;53.148;8.204;2023-03-25T08:24:41;52.60;44.47;65.56;;
48967;Laerm;46511;53.148;8.204;2023-03-25T08:27:12;52.04;44.69;64.06;;
48967;Laerm;46511;53.148;8.204;2023-03-25T08:29:44;61.32;45.27;82.37;;
48967;Laerm;46511;53.148;8.204;2023-03-25T08:32:25;55.99;44.80;69.97;;
48967;Laerm;46511;53.148;8.204;2023-03-25T08:34:57;58.27;45.89;71.61;;
48967;Laerm;46511;53.148;8.204;2023-03-25T08:37:29;57.48;45.48;71.48;;
48967;Laerm;46511;53.148;8.204;2023-03-25T08:40:02;59.38;45.60;76.30;;
48967;Laerm;46511;53.148;8.204;2023-03-25T08:42:37;59.46;44.73;75.68;;
48967;Laerm;46511;53.148;8.204;2023-03-25T08:45:09;56.47;45.14;76.96;;
48967;Laerm;46511;53.148;8.204;2023-03-25T08:47:42;63.31;46.28;74.82;;
48967;Laerm;46511;53.148;8.204;2023-03-25T08:50:13;54.47;45.42;70.48;;
48967;Laerm;46511;53.148;8.204;2023-03-25T08:52:44;58.15;45.54;72.01;;
48967;Laerm;46511;53.148;8.204;2023-03-25T08:55:16;59.88;45.27;78.69;;
48967;Laerm;46511;53.148;8.204;2023-03-25T08:57:47;57.72;44.90;74.20;;
48967;Laerm;46511;53.148;8.204;2023-03-25T09:00:19;59.86;46.76;77.33;;
48967;Laerm;46511;53.148;8.204;2023-03-25T09:02:54;55.98;45.45;73.31;;
48967;Laerm;46511;53.148;8.204;2023-03-25T09:05:27;58.88;46.64;75.98;;
48967;Laerm;46511;53.148;8.204;2023-03-25T09:07:59;60.45;47.35;77.91;;
48967;Laerm;46511;53.148;8.204;2023-03-25T09:10:31;57.52;45.86;82.66;;
48967;Laerm;46511;53.148;8.204;2023-03-25T09:13:02;56.06;45.91;71.05;;
48967;Laerm;46511;53.148;8.204;2023-03-25T09:15:33;58.51;46.71;78.13;;
48967;Laerm;46511;53.148;8.204;2023-03-25T09:18:04;60.38;47.96;77.69;;
48967;Laerm;46511;53.148;8.204;2023-03-25T09:20:39;61.49;48.08;77.83;;
48967;Laerm;46511;53.148;8.204;2023-03-25T09:23:11;60.50;47.44;69.09;;
48967;Laerm;46511;53.148;8.204;2023-03-25T09:25:43;58.94;47.06;72.43;;
48967;Laerm;46511;53.148;8.204;2023-03-25T09:28:16;58.93;46.15;79.28;;
48967;Laerm;46511;53.148;8.204;2023-03-25T09:30:47;57.82;45.39;68.24;;
48967;Laerm;46511;53.148;8.204;2023-03-25T09:33:19;57.40;46.10;66.48;;
48967;Laerm;46511;53.148;8.204;2023-03-25T09:35:50;70.02;50.25;76.25;;
48967;Laerm;46511;53.148;8.204;2023-03-25T09:38:21;67.85;54.83;76.02;;
48967;Laerm;46511;53.148;8.204;2023-03-25T09:40:53;63.47;53.95;74.72;;
48967;Laerm;46511;53.148;8.204;2023-03-25T09:46:05;59.73;50.51;71.91;;
48967;Laerm;46511;53.148;8.204;2023-03-25T09:48:42;57.55;49.98;66.82;;
48967;Laerm;46511;53.148;8.204;2023-03-25T09:51:21;61.03;50.13;72.24;;
48967;Laerm;46511;53.148;8.204;2023-03-25T09:53:59;58.69;49.74;73.08;;
48967;Laerm;46511;53.148;8.204;2023-03-25T09:56:36;59.09;49.39;69.41;;
48967;Laerm;46511;53.148;8.204;2023-03-25T09:59:15;57.59;48.51;68.36;;
48967;Laerm;46511;53.148;8.204;2023-03-25T10:02:05;62.15;47.65;75.23;;
48967;Laerm;46511;53.148;8.204;2023-03-25T10:07:41;56.06;47.50;67.74;;
48967;Laerm;46511;53.148;8.204;2023-03-25T10:11:06;60.28;45.83;74.55;;
48967;Laerm;46511;53.148;8.204;2023-03-25T10:20:09;56.10;46.23;66.76;;
48967;Laerm;46511;53.148;8.204;2023-03-25T10:23:07;58.60;46.38;71.91;;
48967;Laerm;46511;53.148;8.204;2023-03-25T10:25:46;57.67;46.64;69.90;;
48967;Laerm;46511;53.148;8.204;2023-03-25T10:28:31;58.17;45.72;69.59;;
48967;Laerm;46511;53.148;8.204;2023-03-25T10:31:04;56.17;46.87;68.89;;
48967;Laerm;46511;53.148;8.204;2023-03-25T10:33:36;58.02;46.84;77.10;;
48967;Laerm;46511;53.148;8.204;2023-03-25T10:36:14;57.90;45.48;68.34;;
48967;Laerm;46511;53.148;8.204;2023-03-25T10:38:52;60.31;46.05;74.12;;
48967;Laerm;46511;53.148;8.204;2023-03-25T10:41:27;59.55;46.50;73.58;;
48967;Laerm;46511;53.148;8.204;2023-03-25T10:44:03;59.24;45.72;78.03;;
48967;Laerm;46511;53.148;8.204;2023-03-25T10:46:57;55.71;46.93;71.18;;
48967;Laerm;46511;53.148;8.204;2023-03-25T10:49:32;58.83;46.89;74.34;;
48967;Laerm;46511;53.148;8.204;2023-03-25T10:52:04;60.14;46.45;77.74;;
48967;Laerm;46511;53.148;8.204;2023-03-25T10:54:40;64.24;47.51;83.96;;
48967;Laerm;46511;53.148;8.204;2023-03-25T10:57:19;64.26;47.00;83.64;;
48967;Laerm;46511;53.148;8.204;2023-03-25T11:02:27;63.81;47.10;85.79;;
48967;Laerm;46511;53.148;8.204;2023-03-25T11:05:02;60.04;46.71;80.34;;
48967;Laerm;46511;53.148;8.204;2023-03-25T11:07:39;63.38;48.40;83.74;;
48967;Laerm;46511;53.148;8.204;2023-03-25T11:10:24;57.53;47.41;71.50;;
48967;Laerm;46511;53.148;8.204;2023-03-25T11:12:52;60.03;49.92;79.77;;
48967;Laerm;46511;53.148;8.204;2023-03-25T11:15:25;65.36;47.46;85.77;;
48967;Laerm;46511;53.148;8.204;2023-03-25T11:18:04;61.04;46.50;77.05;;
48967;Laerm;46511;53.148;8.204;2023-03-25T11:20:38;62.31;50.24;80.05;;
48967;Laerm;46511;53.148;8.204;2023-03-25T11:23:21;61.19;47.57;74.96;;
48967;Laerm;46511;53.148;8.204;2023-03-25T11:26:01;59.60;47.51;77.67;;
48967;Laerm;46511;53.148;8.204;2023-03-25T11:28:41;61.81;48.07;82.04;;
48967;Laerm;46511;53.148;8.204;2023-03-25T11:31:16;60.39;47.77;82.62;;
48967;Laerm;46511;53.148;8.204;2023-03-25T11:37:05;62.99;49.90;83.81;;
48967;Laerm;46511;53.148;8.204;2023-03-25T11:39:42;66.24;53.77;83.69;;
48967;Laerm;46511;53.148;8.204;2023-03-25T11:44:54;62.17;51.05;74.37;;
48967;Laerm;46511;53.148;8.204;2023-03-25T11:47:31;60.98;48.96;71.49;;
48967;Laerm;46511;53.148;8.204;2023-03-25T11:50:05;53.81;47.77;65.52;;
48967;Laerm;46511;53.148;8.204;2023-03-25T11:52:41;57.90;47.32;73.41;;
48967;Laerm;46511;53.148;8.204;2023-03-25T11:55:43;62.81;47.15;79.59;;
48967;Laerm;46511;53.148;8.204;2023-03-25T11:58:18;61.43;47.08;72.69;;
48967;Laerm;46511;53.148;8.204;2023-03-25T12:01:03;58.58;46.69;69.58;;
48967;Laerm;46511;53.148;8.204;2023-03-25T12:03:34;58.95;47.24;70.12;;
48967;Laerm;46511;53.148;8.204;2023-03-25T12:06:16;59.41;48.20;70.61;;
48967;Laerm;46511;53.148;8.204;2023-03-25T12:08:50;58.45;46.91;69.98;;
48967;Laerm;46511;53.148;8.204;2023-03-25T12:11:45;54.85;46.69;65.96;;
48967;Laerm;46511;53.148;8.204;2023-03-25T12:17:25;56.49;46.30;71.93;;
48967;Laerm;46511;53.148;8.204;2023-03-25T12:20:15;56.66;46.87;73.08;;
48967;Laerm;46511;53.148;8.204;2023-03-25T12:22:59;59.75;46.25;73.64;;
48967;Laerm;46511;53.148;8.204;2023-03-25T12:25:51;59.62;46.59;73.12;;
48967;Laerm;46511;53.148;8.204;2023-03-25T12:29:01;54.24;44.80;68.62;;
48967;Laerm;46511;53.148;8.204;2023-03-25T12:35:07;60.55;46.40;78.44;;
48967;Laerm;46511;53.148;8.204;2023-03-25T12:38:10;58.63;46.18;82.42;;
48967;Laerm;46511;53.148;8.204;2023-03-25T12:43:56;57.89;44.80;80.10;;
48967;Laerm;46511;53.148;8.204;2023-03-25T12:49:27;70.39;46.69;95.90;;
48967;Laerm;46511;53.148;8.204;2023-03-25T12:52:33;63.13;48.15;84.65;;
48967;Laerm;46511;53.148;8.204;2023-03-25T12:55:22;63.13;50.36;82.27;;
48967;Laerm;46511;53.148;8.204;2023-03-25T12:58:07;60.92;48.84;75.16;;
48967;Laerm;46511;53.148;8.204;2023-03-25T13:00:59;56.20;48.25;70.20;;
48967;Laerm;46511;53.148;8.204;2023-03-25T13:06:53;56.60;45.99;70.13;;
48967;Laerm;46511;53.148;8.204;2023-03-25T13:09:51;57.92;45.66;72.84;;
48967;Laerm;46511;53.148;8.204;2023-03-25T13:12:33;59.54;46.57;72.57;;
48967;Laerm;46511;53.148;8.204;2023-03-25T13:15:18;65.56;46.93;86.58;;
48967;Laerm;46511;53.148;8.204;2023-03-25T13:17:56;64.02;47.52;84.11;;
48967;Laerm;46511;53.148;8.204;2023-03-25T13:20:34;58.94;47.28;72.93;;
48967;Laerm;46511;53.148;8.204;2023-03-25T13:23:12;61.86;46.82;84.64;;
48967;Laerm;46511;53.148;8.204;2023-03-25T13:25:52;62.02;46.84;80.40;;
48967;Laerm;46511;53.148;8.204;2023-03-25T13:28:38;58.71;49.96;73.57;;
48967;Laerm;46511;53.148;8.204;2023-03-25T13:31:15;58.43;48.43;72.54;;
48967;Laerm;46511;53.148;8.204;2023-03-25T13:36:52;59.79;48.48;71.29;;
48967;Laerm;46511;53.148;8.204;2023-03-25T13:39:44;61.04;50.10;74.93;;
48967;Laerm;46511;53.148;8.204;2023-03-25T13:42:43;60.73;48.87;77.83;;
48967;Laerm;46511;53.148;8.204;2023-03-25T13:45:22;61.63;49.88;82.35;;
48967;Laerm;46511;53.148;8.204;2023-03-25T13:48:06;61.17;48.90;77.35;;
48967;Laerm;46511;53.148;8.204;2023-03-25T13:50:41;59.69;50.16;74.79;;
48967;Laerm;46511;53.148;8.204;2023-03-25T13:53:18;60.43;47.57;69.62;;
48967;Laerm;46511;53.148;8.204;2023-03-25T13:56:00;57.14;46.64;68.36;;
48967;Laerm;46511;53.148;8.204;2023-03-25T14:04:38;57.96;47.04;69.33;;
48967;Laerm;46511;53.148;8.204;2023-03-25T14:10:22;58.42;46.50;71.95;;
48967;Laerm;46511;53.148;8.204;2023-03-25T14:12:53;56.99;46.71;75.18;;
48967;Laerm;46511;53.148;8.204;2023-03-25T14:15:33;61.86;47.32;85.57;;
48967;Laerm;46511;53.148;8.204;2023-03-25T14:18:15;60.65;46.52;78.77;;
48967;Laerm;46511;53.148;8.204;2023-03-25T14:20:48;63.58;46.76;82.79;;
48967;Laerm;46511;53.148;8.204;2023-03-25T14:23:20;63.97;47.90;80.61;;
48967;Laerm;46511;53.148;8.204;2023-03-25T14:25:55;58.90;45.36;73.26;;
48967;Laerm;46511;53.148;8.204;2023-03-25T14:28:38;63.70;50.66;84.31;;
48967;Laerm;46511;53.148;8.204;2023-03-25T14:44:46;60.40;47.88;77.37;;
48967;Laerm;46511;53.148;8.204;2023-03-25T14:47:26;61.31;48.63;78.64;;
48967;Laerm;46511;53.148;8.204;2023-03-25T14:52:42;59.99;47.18;74.40;;
48967;Laerm;46511;53.148;8.204;2023-03-25T14:55:18;56.86;46.64;70.97;;
48967;Laerm;46511;53.148;8.204;2023-03-25T14:57:57;54.97;45.97;68.12;;
48967;Laerm;46511;53.148;8.204;2023-03-25T15:00:31;58.34;46.66;76.17;;
48967;Laerm;46511;53.148;8.204;2023-03-25T15:03:11;58.70;47.16;67.59;;
48967;Laerm;46511;53.148;8.204;2023-03-25T15:05:44;70.59;57.88;78.32;;
48967;Laerm;46511;53.148;8.204;2023-03-25T15:08:34;62.14;52.31;73.99;;
48967;Laerm;46511;53.148;8.204;2023-03-25T15:11:11;59.84;50.19;72.21;;
48967;Laerm;46511;53.148;8.204;2023-03-25T15:13:47;58.93;50.53;73.24;;
48967;Laerm;46511;53.148;8.204;2023-03-25T15:16:35;65.96;57.16;76.92;;
48967;Laerm;46511;53.148;8.204;2023-03-25T15:19:11;63.11;54.87;76.81;;
48967;Laerm;46511;53.148;8.204;2023-03-25T15:24:28;60.19;54.17;68.60;;
48967;Laerm;46511;53.148;8.204;2023-03-25T15:27:06;60.28;50.06;68.88;;
48967;Laerm;46511;53.148;8.204;2023-03-25T15:37:49;62.34;55.33;75.41;;
48967;Laerm;46511;53.148;8.204;2023-03-25T15:49:14;64.07;52.62;84.95;;
48967;Laerm;46511;53.148;8.204;2023-03-25T15:52:08;66.88;53.16;90.97;;
48967;Laerm;46511;53.148;8.204;2023-03-25T15:54:45;65.61;50.69;83.83;;
48967;Laerm;46511;53.148;8.204;2023-03-25T15:57:29;59.27;50.06;73.58;;
48967;Laerm;46511;53.148;8.204;2023-03-25T16:00:12;62.22;49.65;82.46;;
48967;Laerm;46511;53.148;8.204;2023-03-25T16:02:48;61.17;49.66;83.85;;
48967;Laerm;46511;53.148;8.204;2023-03-25T16:05:22;56.90;47.52;71.78;;
48967;Laerm;46511;53.148;8.204;2023-03-25T16:07:55;61.20;49.41;76.88;;
48967;Laerm;46511;53.148;8.204;2023-03-25T16:10:31;58.60;48.51;75.08;;
48967;Laerm;46511;53.148;8.204;2023-03-25T16:13:04;58.04;48.25;75.47;;
48967;Laerm;46511;53.148;8.204;2023-03-25T16:15:37;59.19;47.30;73.29;;
48967;Laerm;46511;53.148;8.204;2023-03-25T16:18:13;56.96;47.28;71.07;;
48967;Laerm;46511;53.148;8.204;2023-03-25T16:20:52;62.49;48.63;80.41;;
48967;Laerm;46511;53.148;8.204;2023-03-25T16:23:26;58.91;47.84;75.29;;